sensor_id;sensor_type;location;lat;lon;timestamp;P1;durP1;ratioP1;P2;durP2;ratioP2
16826;SDS011;8530;49.540;8.576;2023-08-31T00:01:02;5.77;;;5.00;;
16826;SDS011;8530;49.540;8.576;2023-08-31T00:03:31;5.20;;;4.80;;
16826;SDS011;8530;49.540;8.576;2023-08-31T00:06:00;5.13;;;4.63;;
16826;SDS011;8530;49.540;8.576;2023-08-31T00:08:27;8.30;;;5.70;;
16826;SDS011;8530;49.540;8.576;2023-08-31T00:10:55;6.00;;;5.10;;
16826;SDS011;8530;49.540;8.576;2023-08-31T00:13:23;5.03;;;4.40;;
16826;SDS011;8530;49.540;8.576;2023-08-31T00:15:53;5.67;;;4.87;;
16826;SDS011;8530;49.540;8.576;2023-08-31T00:18:20;5.20;;;4.70;;
16826;SDS011;8530;49.540;8.576;2023-08-31T00:20:48;4.57;;;4.17;;
16826;SDS011;8530;49.540;8.576;2023-08-31T00:23:15;7.87;;;5.10;;
16826;SDS011;8530;49.540;8.576;2023-08-31T00:25:41;6.70;;;5.13;;
16826;SDS011;8530;49.540;8.576;2023-08-31T00:28:09;8.50;;;5.47;;
16826;SDS011;8530;49.540;8.576;2023-08-31T00:30:35;5.60;;;5.00;;
16826;SDS011;8530;49.540;8.576;2023-08-31T00:33:02;8.00;;;4.87;;
16826;SDS011;8530;49.540;8.576;2023-08-31T00:35:29;5.40;;;4.90;;
16826;SDS011;8530;49.540;8.576;2023-08-31T00:37:57;8.30;;;5.37;;
16826;SDS011;8530;49.540;8.576;2023-08-31T00:40:25;6.40;;;5.20;;
16826;SDS011;8530;49.540;8.576;2023-08-31T00:42:53;10.00;;;5.33;;
16826;SDS011;8530;49.540;8.576;2023-08-31T00:45:19;7.60;;;5.80;;
16826;SDS011;8530;49.540;8.576;2023-08-31T00:47:47;8.97;;;5.33;;
16826;SDS011;8530;49.540;8.576;2023-08-31T00:50:15;8.57;;;5.83;;
16826;SDS011;8530;49.540;8.576;2023-08-31T00:52:42;7.73;;;5.47;;
16826;SDS011;8530;49.540;8.576;2023-08-31T00:55:11;9.30;;;5.70;;
16826;SDS011;8530;49.540;8.576;2023-08-31T00:57:38;6.40;;;5.30;;
16826;SDS011;8530;49.540;8.576;2023-08-31T01:00:06;5.43;;;4.93;;
16826;SDS011;8530;49.540;8.576;2023-08-31T01:02:34;9.80;;;4.90;;
16826;SDS011;8530;49.540;8.576;2023-08-31T01:05:08;6.23;;;5.63;;
16826;SDS011;8530;49.540;8.576;2023-08-31T01:07:41;8.33;;;5.83;;
16826;SDS011;8530;49.540;8.576;2023-08-31T01:10:20;5.70;;;4.70;;
16826;SDS011;8530;49.540;8.576;2023-08-31T01:12:56;7.77;;;5.30;;
16826;SDS011;8530;49.540;8.576;2023-08-31T01:15:29;8.60;;;6.00;;
16826;SDS011;8530;49.540;8.576;2023-08-31T01:17:58;9.77;;;6.40;;
16826;SDS011;8530;49.540;8.576;2023-08-31T01:20:28;8.50;;;6.43;;
16826;SDS011;8530;49.540;8.576;2023-08-31T01:23:01;8.50;;;6.10;;
16826;SDS011;8530;49.540;8.576;2023-08-31T01:25:33;8.40;;;5.63;;
16826;SDS011;8530;49.540;8.576;2023-08-31T01:28:00;7.50;;;6.00;;
16826;SDS011;8530;49.540;8.576;2023-08-31T01:30:29;8.43;;;6.47;;
16826;SDS011;8530;49.540;8.576;2023-08-31T01:32:57;9.13;;;6.40;;
16826;SDS011;8530;49.540;8.576;2023-08-31T01:35:24;10.93;;;6.13;;
16826;SDS011;8530;49.540;8.576;2023-08-31T01:37:52;7.10;;;6.37;;
16826;SDS011;8530;49.540;8.576;2023-08-31T01:40:23;12.13;;;6.57;;
16826;SDS011;8530;49.540;8.576;2023-08-31T01:42:59;7.37;;;6.63;;
16826;SDS011;8530;49.540;8.576;2023-08-31T01:45:28;8.03;;;6.30;;
16826;SDS011;8530;49.540;8.576;2023-08-31T01:47:56;9.47;;;6.50;;
16826;SDS011;8530;49.540;8.576;2023-08-31T01:50:23;8.23;;;6.20;;
16826;SDS011;8530;49.540;8.576;2023-08-31T01:52:50;8.40;;;6.27;;
16826;SDS011;8530;49.540;8.576;2023-08-31T01:55:18;9.90;;;6.13;;
16826;SDS011;8530;49.540;8.576;2023-08-31T01:57:46;6.80;;;5.80;;
16826;SDS011;8530;49.540;8.576;2023-08-31T02:00:15;7.03;;;6.03;;
16826;SDS011;8530;49.540;8.576;2023-08-31T02:02:44;7.83;;;7.07;;
16826;SDS011;8530;49.540;8.576;2023-08-31T02:05:10;8.90;;;7.50;;
16826;SDS011;8530;49.540;8.576;2023-08-31T02:07:37;8.70;;;7.37;;
16826;SDS011;8530;49.540;8.576;2023-08-31T02:10:05;12.60;;;7.10;;
16826;SDS011;8530;49.540;8.576;2023-08-31T02:12:33;8.10;;;7.30;;
16826;SDS011;8530;49.540;8.576;2023-08-31T02:15:01;13.47;;;7.53;;
16826;SDS011;8530;49.540;8.576;2023-08-31T02:17:30;8.73;;;6.57;;
16826;SDS011;8530;49.540;8.576;2023-08-31T02:19:56;10.47;;;8.07;;
16826;SDS011;8530;49.540;8.576;2023-08-31T02:22:24;9.70;;;7.60;;
16826;SDS011;8530;49.540;8.576;2023-08-31T02:24:50;8.33;;;7.43;;
16826;SDS011;8530;49.540;8.576;2023-08-31T02:27:17;10.70;;;8.03;;
16826;SDS011;8530;49.540;8.576;2023-08-31T02:29:44;9.80;;;7.37;;
16826;SDS011;8530;49.540;8.576;2023-08-31T02:32:11;10.00;;;8.20;;
16826;SDS011;8530;49.540;8.576;2023-08-31T02:34:38;9.30;;;7.87;;
16826;SDS011;8530;49.540;8.576;2023-08-31T02:37:05;8.00;;;6.80;;
16826;SDS011;8530;49.540;8.576;2023-08-31T02:39:32;8.43;;;7.60;;
16826;SDS011;8530;49.540;8.576;2023-08-31T02:41:59;10.00;;;8.10;;
16826;SDS011;8530;49.540;8.576;2023-08-31T02:44:26;10.40;;;7.80;;
16826;SDS011;8530;49.540;8.576;2023-08-31T02:46:52;9.17;;;8.27;;
16826;SDS011;8530;49.540;8.576;2023-08-31T02:49:19;10.10;;;8.80;;
16826;SDS011;8530;49.540;8.576;2023-08-31T02:51:47;14.07;;;8.70;;
16826;SDS011;8530;49.540;8.576;2023-08-31T02:54:14;8.60;;;7.70;;
16826;SDS011;8530;49.540;8.576;2023-08-31T02:56:41;8.23;;;7.07;;
16826;SDS011;8530;49.540;8.576;2023-08-31T02:59:08;20.33;;;8.53;;
16826;SDS011;8530;49.540;8.576;2023-08-31T03:01:35;12.87;;;9.40;;
16826;SDS011;8530;49.540;8.576;2023-08-31T03:04:01;8.57;;;7.77;;
16826;SDS011;8530;49.540;8.576;2023-08-31T03:06:28;11.13;;;7.90;;
16826;SDS011;8530;49.540;8.576;2023-08-31T03:08:58;13.17;;;7.40;;
16826;SDS011;8530;49.540;8.576;2023-08-31T03:11:26;14.50;;;8.53;;
16826;SDS011;8530;49.540;8.576;2023-08-31T03:13:52;16.83;;;10.60;;
16826;SDS011;8530;49.540;8.576;2023-08-31T03:16:19;11.13;;;8.13;;
16826;SDS011;8530;49.540;8.576;2023-08-31T03:18:46;15.73;;;9.73;;
16826;SDS011;8530;49.540;8.576;2023-08-31T03:21:12;10.10;;;9.20;;
16826;SDS011;8530;49.540;8.576;2023-08-31T03:23:39;10.83;;;8.90;;
16826;SDS011;8530;49.540;8.576;2023-08-31T03:26:07;14.67;;;8.77;;
16826;SDS011;8530;49.540;8.576;2023-08-31T03:28:34;8.63;;;7.67;;
16826;SDS011;8530;49.540;8.576;2023-08-31T03:31:01;13.63;;;9.90;;
16826;SDS011;8530;49.540;8.576;2023-08-31T03:33:28;8.83;;;7.90;;
16826;SDS011;8530;49.540;8.576;2023-08-31T03:35:59;12.33;;;9.17;;
16826;SDS011;8530;49.540;8.576;2023-08-31T03:38:26;13.83;;;10.30;;
16826;SDS011;8530;49.540;8.576;2023-08-31T03:40:53;18.20;;;9.80;;
16826;SDS011;8530;49.540;8.576;2023-08-31T03:43:22;12.53;;;8.93;;
16826;SDS011;8530;49.540;8.576;2023-08-31T03:45:49;13.53;;;9.57;;
16826;SDS011;8530;49.540;8.576;2023-08-31T03:48:20;10.37;;;9.13;;
16826;SDS011;8530;49.540;8.576;2023-08-31T03:50:48;19.03;;;10.90;;
16826;SDS011;8530;49.540;8.576;2023-08-31T03:53:15;19.70;;;10.67;;
16826;SDS011;8530;49.540;8.576;2023-08-31T03:55:42;12.10;;;10.07;;
16826;SDS011;8530;49.540;8.576;2023-08-31T03:58:19;11.80;;;10.57;;
16826;SDS011;8530;49.540;8.576;2023-08-31T04:01:04;13.97;;;10.83;;
16826;SDS011;8530;49.540;8.576;2023-08-31T04:03:31;13.23;;;10.47;;
16826;SDS011;8530;49.540;8.576;2023-08-31T04:05:58;11.23;;;9.87;;
16826;SDS011;8530;49.540;8.576;2023-08-31T04:08:24;11.27;;;9.13;;
16826;SDS011;8530;49.540;8.576;2023-08-31T04:10:51;16.20;;;8.90;;
16826;SDS011;8530;49.540;8.576;2023-08-31T04:13:18;10.37;;;9.40;;
16826;SDS011;8530;49.540;8.576;2023-08-31T04:15:46;16.70;;;10.77;;
16826;SDS011;8530;49.540;8.576;2023-08-31T04:18:13;10.77;;;9.73;;
16826;SDS011;8530;49.540;8.576;2023-08-31T04:20:45;10.83;;;9.77;;
16826;SDS011;8530;49.540;8.576;2023-08-31T04:23:14;11.03;;;8.90;;
16826;SDS011;8530;49.540;8.576;2023-08-31T04:25:40;10.37;;;8.93;;
16826;SDS011;8530;49.540;8.576;2023-08-31T04:28:07;11.60;;;9.07;;
16826;SDS011;8530;49.540;8.576;2023-08-31T04:30:34;12.60;;;8.73;;
16826;SDS011;8530;49.540;8.576;2023-08-31T04:33:02;14.17;;;9.97;;
16826;SDS011;8530;49.540;8.576;2023-08-31T04:35:30;11.13;;;9.07;;
16826;SDS011;8530;49.540;8.576;2023-08-31T04:37:57;12.77;;;10.67;;
16826;SDS011;8530;49.540;8.576;2023-08-31T04:40:23;10.83;;;9.73;;
16826;SDS011;8530;49.540;8.576;2023-08-31T04:42:51;10.67;;;9.67;;
16826;SDS011;8530;49.540;8.576;2023-08-31T04:45:18;10.70;;;9.33;;
16826;SDS011;8530;49.540;8.576;2023-08-31T04:47:45;16.00;;;9.80;;
16826;SDS011;8530;49.540;8.576;2023-08-31T04:50:15;13.40;;;9.20;;
16826;SDS011;8530;49.540;8.576;2023-08-31T04:52:42;13.00;;;10.10;;
16826;SDS011;8530;49.540;8.576;2023-08-31T04:55:09;16.63;;;9.60;;
16826;SDS011;8530;49.540;8.576;2023-08-31T04:57:38;21.00;;;9.10;;
16826;SDS011;8530;49.540;8.576;2023-08-31T05:00:05;9.40;;;8.20;;
16826;SDS011;8530;49.540;8.576;2023-08-31T05:02:34;15.03;;;9.20;;
16826;SDS011;8530;49.540;8.576;2023-08-31T05:05:00;15.43;;;9.67;;
16826;SDS011;8530;49.540;8.576;2023-08-31T05:07:29;9.20;;;7.90;;
16826;SDS011;8530;49.540;8.576;2023-08-31T05:09:55;9.80;;;8.53;;
16826;SDS011;8530;49.540;8.576;2023-08-31T05:12:22;8.93;;;8.03;;
16826;SDS011;8530;49.540;8.576;2023-08-31T05:14:49;10.00;;;9.00;;
16826;SDS011;8530;49.540;8.576;2023-08-31T05:17:15;13.87;;;8.07;;
16826;SDS011;8530;49.540;8.576;2023-08-31T05:19:42;13.27;;;9.27;;
16826;SDS011;8530;49.540;8.576;2023-08-31T05:22:09;9.83;;;7.23;;
16826;SDS011;8530;49.540;8.576;2023-08-31T05:24:37;10.60;;;7.77;;
16826;SDS011;8530;49.540;8.576;2023-08-31T05:27:04;10.20;;;6.90;;
16826;SDS011;8530;49.540;8.576;2023-08-31T05:29:31;14.00;;;7.23;;
16826;SDS011;8530;49.540;8.576;2023-08-31T05:31:57;7.37;;;6.10;;
16826;SDS011;8530;49.540;8.576;2023-08-31T05:34:24;7.40;;;6.30;;
16826;SDS011;8530;49.540;8.576;2023-08-31T05:36:51;7.00;;;6.20;;
16826;SDS011;8530;49.540;8.576;2023-08-31T05:39:18;10.90;;;6.70;;
16826;SDS011;8530;49.540;8.576;2023-08-31T05:41:46;9.70;;;6.20;;
16826;SDS011;8530;49.540;8.576;2023-08-31T05:44:13;10.50;;;6.67;;
16826;SDS011;8530;49.540;8.576;2023-08-31T05:46:39;6.97;;;5.40;;
16826;SDS011;8530;49.540;8.576;2023-08-31T05:49:06;7.50;;;5.93;;
16826;SDS011;8530;49.540;8.576;2023-08-31T05:51:33;7.50;;;6.27;;
16826;SDS011;8530;49.540;8.576;2023-08-31T05:54:00;12.67;;;6.37;;
16826;SDS011;8530;49.540;8.576;2023-08-31T05:56:28;8.70;;;5.57;;
16826;SDS011;8530;49.540;8.576;2023-08-31T05:58:56;5.57;;;5.00;;
16826;SDS011;8530;49.540;8.576;2023-08-31T06:01:22;7.03;;;5.80;;
16826;SDS011;8530;49.540;8.576;2023-08-31T06:03:49;7.00;;;4.77;;
16826;SDS011;8530;49.540;8.576;2023-08-31T06:06:16;6.83;;;5.30;;
16826;SDS011;8530;49.540;8.576;2023-08-31T06:08:42;7.70;;;5.67;;
16826;SDS011;8530;49.540;8.576;2023-08-31T06:11:09;5.47;;;3.83;;
16826;SDS011;8530;49.540;8.576;2023-08-31T06:13:38;7.27;;;4.83;;
16826;SDS011;8530;49.540;8.576;2023-08-31T06:16:06;6.73;;;4.90;;
16826;SDS011;8530;49.540;8.576;2023-08-31T06:18:34;7.00;;;5.00;;
16826;SDS011;8530;49.540;8.576;2023-08-31T06:21:00;5.03;;;4.10;;
16826;SDS011;8530;49.540;8.576;2023-08-31T06:23:27;6.83;;;4.27;;
16826;SDS011;8530;49.540;8.576;2023-08-31T06:25:54;9.63;;;3.63;;
16826;SDS011;8530;49.540;8.576;2023-08-31T06:28:21;4.37;;;3.57;;
16826;SDS011;8530;49.540;8.576;2023-08-31T06:30:47;3.73;;;2.70;;
16826;SDS011;8530;49.540;8.576;2023-08-31T06:33:16;5.77;;;3.30;;
16826;SDS011;8530;49.540;8.576;2023-08-31T06:35:45;5.43;;;3.07;;
16826;SDS011;8530;49.540;8.576;2023-08-31T06:38:13;10.50;;;2.93;;
16826;SDS011;8530;49.540;8.576;2023-08-31T06:40:41;5.43;;;3.20;;
16826;SDS011;8530;49.540;8.576;2023-08-31T06:43:08;5.43;;;2.73;;
16826;SDS011;8530;49.540;8.576;2023-08-31T06:45:34;4.90;;;3.00;;
16826;SDS011;8530;49.540;8.576;2023-08-31T06:48:01;3.00;;;2.50;;
16826;SDS011;8530;49.540;8.576;2023-08-31T06:50:30;4.13;;;3.00;;
16826;SDS011;8530;49.540;8.576;2023-08-31T06:52:59;4.97;;;2.87;;
16826;SDS011;8530;49.540;8.576;2023-08-31T06:55:25;5.27;;;3.10;;
16826;SDS011;8530;49.540;8.576;2023-08-31T06:57:52;6.10;;;4.00;;
16826;SDS011;8530;49.540;8.576;2023-08-31T07:00:19;6.50;;;3.47;;
16826;SDS011;8530;49.540;8.576;2023-08-31T07:02:46;5.37;;;3.37;;
16826;SDS011;8530;49.540;8.576;2023-08-31T07:05:12;5.53;;;3.40;;
16826;SDS011;8530;49.540;8.576;2023-08-31T07:07:40;5.37;;;3.90;;
16826;SDS011;8530;49.540;8.576;2023-08-31T07:10:07;9.20;;;5.00;;
16826;SDS011;8530;49.540;8.576;2023-08-31T07:12:34;7.93;;;4.40;;
16826;SDS011;8530;49.540;8.576;2023-08-31T07:15:01;8.33;;;3.47;;
16826;SDS011;8530;49.540;8.576;2023-08-31T07:17:28;9.47;;;3.70;;
16826;SDS011;8530;49.540;8.576;2023-08-31T07:19:55;4.70;;;3.60;;
16826;SDS011;8530;49.540;8.576;2023-08-31T07:22:22;5.23;;;2.80;;
16826;SDS011;8530;49.540;8.576;2023-08-31T07:24:50;5.57;;;4.40;;
16826;SDS011;8530;49.540;8.576;2023-08-31T07:27:17;5.20;;;3.70;;
16826;SDS011;8530;49.540;8.576;2023-08-31T07:29:43;13.23;;;4.30;;
16826;SDS011;8530;49.540;8.576;2023-08-31T07:32:10;6.97;;;4.60;;
16826;SDS011;8530;49.540;8.576;2023-08-31T07:34:37;5.80;;;4.20;;
16826;SDS011;8530;49.540;8.576;2023-08-31T07:40:27;4.70;;;3.10;;
16826;SDS011;8530;49.540;8.576;2023-08-31T07:42:54;7.00;;;2.67;;
16826;SDS011;8530;49.540;8.576;2023-08-31T07:45:20;2.60;;;2.30;;
16826;SDS011;8530;49.540;8.576;2023-08-31T07:47:47;7.53;;;2.40;;
16826;SDS011;8530;49.540;8.576;2023-08-31T07:50:14;4.70;;;2.07;;
16826;SDS011;8530;49.540;8.576;2023-08-31T07:52:40;4.93;;;2.60;;
16826;SDS011;8530;49.540;8.576;2023-08-31T07:55:07;3.77;;;2.33;;
16826;SDS011;8530;49.540;8.576;2023-08-31T07:57:36;6.00;;;3.17;;
16826;SDS011;8530;49.540;8.576;2023-08-31T08:00:03;8.13;;;3.23;;
16826;SDS011;8530;49.540;8.576;2023-08-31T08:02:30;4.10;;;2.30;;
16826;SDS011;8530;49.540;8.576;2023-08-31T08:04:57;4.90;;;2.23;;
16826;SDS011;8530;49.540;8.576;2023-08-31T08:07:24;4.10;;;2.33;;
16826;SDS011;8530;49.540;8.576;2023-08-31T08:09:51;6.77;;;2.87;;
16826;SDS011;8530;49.540;8.576;2023-08-31T08:12:17;11.60;;;3.60;;
16826;SDS011;8530;49.540;8.576;2023-08-31T08:14:45;3.13;;;2.83;;
16826;SDS011;8530;49.540;8.576;2023-08-31T08:17:12;6.70;;;3.03;;
16826;SDS011;8530;49.540;8.576;2023-08-31T08:19:39;4.60;;;2.50;;
16826;SDS011;8530;49.540;8.576;2023-08-31T08:22:05;8.60;;;2.90;;
16826;SDS011;8530;49.540;8.576;2023-08-31T08:24:32;6.73;;;3.33;;
16826;SDS011;8530;49.540;8.576;2023-08-31T08:26:59;6.03;;;3.10;;
16826;SDS011;8530;49.540;8.576;2023-08-31T08:29:25;5.80;;;3.33;;
16826;SDS011;8530;49.540;8.576;2023-08-31T08:31:53;11.30;;;2.97;;
16826;SDS011;8530;49.540;8.576;2023-08-31T08:34:20;3.30;;;2.53;;
16826;SDS011;8530;49.540;8.576;2023-08-31T08:36:47;6.70;;;2.73;;
16826;SDS011;8530;49.540;8.576;2023-08-31T08:39:13;3.77;;;3.10;;
16826;SDS011;8530;49.540;8.576;2023-08-31T08:41:40;9.60;;;2.90;;
16826;SDS011;8530;49.540;8.576;2023-08-31T08:44:07;4.70;;;2.87;;
16826;SDS011;8530;49.540;8.576;2023-08-31T08:46:34;5.33;;;2.30;;
16826;SDS011;8530;49.540;8.576;2023-08-31T08:49:03;5.70;;;2.90;;
16826;SDS011;8530;49.540;8.576;2023-08-31T08:51:31;6.03;;;2.77;;
16826;SDS011;8530;49.540;8.576;2023-08-31T08:53:58;5.43;;;3.10;;
16826;SDS011;8530;49.540;8.576;2023-08-31T08:56:26;4.90;;;2.33;;
16826;SDS011;8530;49.540;8.576;2023-08-31T08:58:53;4.03;;;2.00;;
16826;SDS011;8530;49.540;8.576;2023-08-31T09:01:19;3.50;;;2.30;;
16826;SDS011;8530;49.540;8.576;2023-08-31T09:03:48;12.23;;;2.90;;
16826;SDS011;8530;49.540;8.576;2023-08-31T09:06:16;5.77;;;2.80;;
16826;SDS011;8530;49.540;8.576;2023-08-31T09:08:43;4.97;;;2.37;;
16826;SDS011;8530;49.540;8.576;2023-08-31T09:11:13;7.70;;;2.80;;
16826;SDS011;8530;49.540;8.576;2023-08-31T09:13:47;6.50;;;2.60;;
16826;SDS011;8530;49.540;8.576;2023-08-31T09:16:22;3.97;;;2.73;;
16826;SDS011;8530;49.540;8.576;2023-08-31T09:18:50;8.57;;;2.13;;
16826;SDS011;8530;49.540;8.576;2023-08-31T09:21:18;3.30;;;2.37;;
16826;SDS011;8530;49.540;8.576;2023-08-31T09:23:47;9.57;;;3.23;;
16826;SDS011;8530;49.540;8.576;2023-08-31T09:26:21;5.03;;;2.80;;
16826;SDS011;8530;49.540;8.576;2023-08-31T09:28:48;4.67;;;2.50;;
16826;SDS011;8530;49.540;8.576;2023-08-31T09:31:15;3.40;;;2.33;;
16826;SDS011;8530;49.540;8.576;2023-08-31T09:33:49;3.80;;;2.60;;
16826;SDS011;8530;49.540;8.576;2023-08-31T09:36:16;4.80;;;2.30;;
16826;SDS011;8530;49.540;8.576;2023-08-31T09:38:44;12.00;;;3.23;;
16826;SDS011;8530;49.540;8.576;2023-08-31T09:41:11;8.70;;;2.87;;
16826;SDS011;8530;49.540;8.576;2023-08-31T09:43:40;5.50;;;2.40;;
16826;SDS011;8530;49.540;8.576;2023-08-31T09:46:06;3.67;;;2.47;;
16826;SDS011;8530;49.540;8.576;2023-08-31T09:48:35;5.83;;;2.80;;
16826;SDS011;8530;49.540;8.576;2023-08-31T09:51:04;4.17;;;2.17;;
16826;SDS011;8530;49.540;8.576;2023-08-31T09:53:31;3.57;;;1.97;;
16826;SDS011;8530;49.540;8.576;2023-08-31T09:55:59;7.50;;;2.40;;
16826;SDS011;8530;49.540;8.576;2023-08-31T09:58:27;5.10;;;2.57;;
16826;SDS011;8530;49.540;8.576;2023-08-31T10:00:56;6.50;;;3.47;;
16826;SDS011;8530;49.540;8.576;2023-08-31T10:03:23;4.20;;;2.50;;
16826;SDS011;8530;49.540;8.576;2023-08-31T10:05:52;8.00;;;2.70;;
16826;SDS011;8530;49.540;8.576;2023-08-31T10:08:20;4.93;;;2.13;;
16826;SDS011;8530;49.540;8.576;2023-08-31T10:10:47;5.13;;;2.13;;
16826;SDS011;8530;49.540;8.576;2023-08-31T10:13:15;6.83;;;2.73;;
16826;SDS011;8530;49.540;8.576;2023-08-31T10:15:44;4.20;;;2.40;;
16826;SDS011;8530;49.540;8.576;2023-08-31T10:18:12;4.63;;;2.83;;
16826;SDS011;8530;49.540;8.576;2023-08-31T10:20:39;11.70;;;2.37;;
16826;SDS011;8530;49.540;8.576;2023-08-31T10:23:09;8.10;;;3.33;;
16826;SDS011;8530;49.540;8.576;2023-08-31T10:28:28;3.30;;;1.80;;
16826;SDS011;8530;49.540;8.576;2023-08-31T10:31:01;5.80;;;2.90;;
16826;SDS011;8530;49.540;8.576;2023-08-31T10:33:30;3.53;;;2.40;;
16826;SDS011;8530;49.540;8.576;2023-08-31T10:35:57;6.37;;;2.90;;
16826;SDS011;8530;49.540;8.576;2023-08-31T10:38:25;3.30;;;2.10;;
16826;SDS011;8530;49.540;8.576;2023-08-31T10:41:00;4.47;;;2.80;;
16826;SDS011;8530;49.540;8.576;2023-08-31T10:46:15;3.37;;;2.03;;
16826;SDS011;8530;49.540;8.576;2023-08-31T10:48:50;6.03;;;2.20;;
16826;SDS011;8530;49.540;8.576;2023-08-31T10:51:17;2.50;;;1.70;;
16826;SDS011;8530;49.540;8.576;2023-08-31T10:53:47;3.80;;;2.00;;
16826;SDS011;8530;49.540;8.576;2023-08-31T10:56:15;4.03;;;1.70;;
16826;SDS011;8530;49.540;8.576;2023-08-31T10:58:42;3.77;;;2.23;;
16826;SDS011;8530;49.540;8.576;2023-08-31T11:01:10;3.43;;;1.80;;
16826;SDS011;8530;49.540;8.576;2023-08-31T11:06:23;3.10;;;1.97;;
16826;SDS011;8530;49.540;8.576;2023-08-31T11:08:53;3.03;;;2.37;;
16826;SDS011;8530;49.540;8.576;2023-08-31T11:11:20;3.07;;;2.00;;
16826;SDS011;8530;49.540;8.576;2023-08-31T11:13:49;4.57;;;2.13;;
16826;SDS011;8530;49.540;8.576;2023-08-31T11:16:23;3.90;;;2.33;;
16826;SDS011;8530;49.540;8.576;2023-08-31T11:18:50;4.40;;;2.87;;
16826;SDS011;8530;49.540;8.576;2023-08-31T11:21:17;3.93;;;2.13;;
16826;SDS011;8530;49.540;8.576;2023-08-31T11:23:44;4.70;;;2.60;;
16826;SDS011;8530;49.540;8.576;2023-08-31T11:26:13;3.73;;;2.47;;
16826;SDS011;8530;49.540;8.576;2023-08-31T11:28:42;3.03;;;2.00;;
16826;SDS011;8530;49.540;8.576;2023-08-31T11:31:11;2.80;;;1.83;;
16826;SDS011;8530;49.540;8.576;2023-08-31T11:33:40;4.30;;;2.50;;
16826;SDS011;8530;49.540;8.576;2023-08-31T11:36:07;4.13;;;2.17;;
16826;SDS011;8530;49.540;8.576;2023-08-31T11:38:38;5.63;;;2.87;;
16826;SDS011;8530;49.540;8.576;2023-08-31T11:41:06;5.17;;;2.33;;
16826;SDS011;8530;49.540;8.576;2023-08-31T11:43:33;5.83;;;2.07;;
16826;SDS011;8530;49.540;8.576;2023-08-31T11:46:00;5.10;;;2.47;;
16826;SDS011;8530;49.540;8.576;2023-08-31T11:48:28;2.83;;;2.10;;
16826;SDS011;8530;49.540;8.576;2023-08-31T11:50:56;7.53;;;2.30;;
16826;SDS011;8530;49.540;8.576;2023-08-31T11:53:23;6.17;;;2.03;;
16826;SDS011;8530;49.540;8.576;2023-08-31T11:55:51;6.60;;;2.70;;
16826;SDS011;8530;49.540;8.576;2023-08-31T11:58:18;6.43;;;1.90;;
16826;SDS011;8530;49.540;8.576;2023-08-31T12:00:45;4.50;;;2.37;;
16826;SDS011;8530;49.540;8.576;2023-08-31T12:03:20;11.10;;;2.30;;
16826;SDS011;8530;49.540;8.576;2023-08-31T12:05:47;4.07;;;2.77;;
16826;SDS011;8530;49.540;8.576;2023-08-31T12:08:16;4.70;;;2.57;;
16826;SDS011;8530;49.540;8.576;2023-08-31T12:10:49;6.67;;;2.50;;
16826;SDS011;8530;49.540;8.576;2023-08-31T12:13:16;4.60;;;2.13;;
16826;SDS011;8530;49.540;8.576;2023-08-31T12:15:43;4.70;;;2.40;;
16826;SDS011;8530;49.540;8.576;2023-08-31T12:18:10;9.83;;;2.63;;
16826;SDS011;8530;49.540;8.576;2023-08-31T12:20:42;8.53;;;2.60;;
16826;SDS011;8530;49.540;8.576;2023-08-31T12:23:10;7.70;;;2.43;;
16826;SDS011;8530;49.540;8.576;2023-08-31T12:25:38;5.37;;;2.33;;
16826;SDS011;8530;49.540;8.576;2023-08-31T12:28:05;4.63;;;2.40;;
16826;SDS011;8530;49.540;8.576;2023-08-31T12:30:31;8.30;;;3.00;;
16826;SDS011;8530;49.540;8.576;2023-08-31T12:32:58;11.67;;;3.17;;
16826;SDS011;8530;49.540;8.576;2023-08-31T12:35:25;6.20;;;2.33;;
16826;SDS011;8530;49.540;8.576;2023-08-31T12:37:51;7.10;;;2.93;;
16826;SDS011;8530;49.540;8.576;2023-08-31T12:40:18;6.90;;;2.60;;
16826;SDS011;8530;49.540;8.576;2023-08-31T12:42:46;5.30;;;2.37;;
16826;SDS011;8530;49.540;8.576;2023-08-31T12:45:13;6.40;;;2.67;;
16826;SDS011;8530;49.540;8.576;2023-08-31T12:47:40;5.00;;;2.80;;
16826;SDS011;8530;49.540;8.576;2023-08-31T12:50:07;6.47;;;2.17;;
16826;SDS011;8530;49.540;8.576;2023-08-31T12:52:34;7.83;;;2.90;;
16826;SDS011;8530;49.540;8.576;2023-08-31T12:55:01;7.13;;;2.57;;
16826;SDS011;8530;49.540;8.576;2023-08-31T12:57:29;5.80;;;2.57;;
16826;SDS011;8530;49.540;8.576;2023-08-31T12:59:57;4.60;;;2.10;;
16826;SDS011;8530;49.540;8.576;2023-08-31T13:02:24;6.00;;;2.63;;
16826;SDS011;8530;49.540;8.576;2023-08-31T13:04:50;4.90;;;3.17;;
16826;SDS011;8530;49.540;8.576;2023-08-31T13:07:17;9.17;;;2.90;;
16826;SDS011;8530;49.540;8.576;2023-08-31T13:09:44;4.43;;;2.50;;
16826;SDS011;8530;49.540;8.576;2023-08-31T13:12:11;9.80;;;3.70;;
16826;SDS011;8530;49.540;8.576;2023-08-31T13:14:37;7.83;;;2.93;;
16826;SDS011;8530;49.540;8.576;2023-08-31T13:17:06;14.30;;;2.50;;
16826;SDS011;8530;49.540;8.576;2023-08-31T13:19:33;6.80;;;2.57;;
16826;SDS011;8530;49.540;8.576;2023-08-31T13:21:59;7.13;;;2.50;;
16826;SDS011;8530;49.540;8.576;2023-08-31T13:24:26;9.27;;;2.60;;
16826;SDS011;8530;49.540;8.576;2023-08-31T13:26:53;4.80;;;2.40;;
16826;SDS011;8530;49.540;8.576;2023-08-31T13:29:20;9.03;;;3.33;;
16826;SDS011;8530;49.540;8.576;2023-08-31T13:31:46;9.57;;;2.73;;
16826;SDS011;8530;49.540;8.576;2023-08-31T13:34:15;6.67;;;2.57;;
16826;SDS011;8530;49.540;8.576;2023-08-31T13:36:43;6.27;;;2.57;;
16826;SDS011;8530;49.540;8.576;2023-08-31T13:39:11;9.90;;;3.10;;
16826;SDS011;8530;49.540;8.576;2023-08-31T13:41:38;5.50;;;2.40;;
16826;SDS011;8530;49.540;8.576;2023-08-31T13:44:05;9.63;;;2.70;;
16826;SDS011;8530;49.540;8.576;2023-08-31T13:46:32;5.20;;;2.67;;
16826;SDS011;8530;49.540;8.576;2023-08-31T13:48:59;6.30;;;2.63;;
16826;SDS011;8530;49.540;8.576;2023-08-31T13:51:28;10.97;;;2.93;;
16826;SDS011;8530;49.540;8.576;2023-08-31T13:53:55;5.17;;;3.00;;
16826;SDS011;8530;49.540;8.576;2023-08-31T13:56:22;6.73;;;2.90;;
16826;SDS011;8530;49.540;8.576;2023-08-31T13:58:48;4.50;;;2.43;;
16826;SDS011;8530;49.540;8.576;2023-08-31T14:01:15;4.40;;;2.57;;
16826;SDS011;8530;49.540;8.576;2023-08-31T14:03:42;8.47;;;2.80;;
16826;SDS011;8530;49.540;8.576;2023-08-31T14:06:09;9.00;;;3.47;;
16826;SDS011;8530;49.540;8.576;2023-08-31T14:08:38;8.00;;;2.77;;
16826;SDS011;8530;49.540;8.576;2023-08-31T14:11:05;7.17;;;2.70;;
16826;SDS011;8530;49.540;8.576;2023-08-31T14:13:32;5.60;;;2.60;;
16826;SDS011;8530;49.540;8.576;2023-08-31T14:15:59;4.00;;;2.00;;
16826;SDS011;8530;49.540;8.576;2023-08-31T14:18:26;9.50;;;3.10;;
16826;SDS011;8530;49.540;8.576;2023-08-31T14:20:54;5.23;;;2.23;;
16826;SDS011;8530;49.540;8.576;2023-08-31T14:23:21;6.47;;;3.13;;
16826;SDS011;8530;49.540;8.576;2023-08-31T14:25:49;8.30;;;2.93;;
16826;SDS011;8530;49.540;8.576;2023-08-31T14:28:16;5.70;;;2.60;;
16826;SDS011;8530;49.540;8.576;2023-08-31T14:30:43;4.33;;;2.47;;
16826;SDS011;8530;49.540;8.576;2023-08-31T14:33:09;4.23;;;2.63;;
16826;SDS011;8530;49.540;8.576;2023-08-31T14:35:36;3.60;;;1.97;;
16826;SDS011;8530;49.540;8.576;2023-08-31T14:38:03;4.23;;;2.13;;
16826;SDS011;8530;49.540;8.576;2023-08-31T14:40:30;5.60;;;2.33;;
16826;SDS011;8530;49.540;8.576;2023-08-31T14:43:00;5.40;;;2.40;;
16826;SDS011;8530;49.540;8.576;2023-08-31T14:45:27;6.17;;;2.47;;
16826;SDS011;8530;49.540;8.576;2023-08-31T14:47:53;11.37;;;2.63;;
16826;SDS011;8530;49.540;8.576;2023-08-31T14:50:20;6.40;;;2.40;;
16826;SDS011;8530;49.540;8.576;2023-08-31T14:52:47;8.77;;;3.80;;
16826;SDS011;8530;49.540;8.576;2023-08-31T14:55:14;5.37;;;2.20;;
16826;SDS011;8530;49.540;8.576;2023-08-31T14:57:40;5.07;;;2.60;;
16826;SDS011;8530;49.540;8.576;2023-08-31T15:00:09;5.40;;;3.30;;
16826;SDS011;8530;49.540;8.576;2023-08-31T15:02:37;6.03;;;2.37;;
16826;SDS011;8530;49.540;8.576;2023-08-31T15:05:04;7.97;;;3.40;;
16826;SDS011;8530;49.540;8.576;2023-08-31T15:07:31;5.43;;;2.57;;
16826;SDS011;8530;49.540;8.576;2023-08-31T15:09:58;8.83;;;3.07;;
16826;SDS011;8530;49.540;8.576;2023-08-31T15:12:26;5.10;;;3.40;;